Odenburg, Louisiana
Current Conditions -  °F | °C
As of 6:35 PM on Friday 24 Oct 2014 (Local Time) from KHZR Reporting Station
Clear Clear  
Wind Chill: 19°   Ceiling: Unl
Heat Index: 19°   Visibility: 10mi
Dew Point: 10°   Wind: 3mph
Humidity: 58%   Direction: 340°NNW
Pressure: 30.09"   Gusts: NA
Location:  30.9317°N, 91.8606°W
Report Text: KHZR 242335Z AUTO 34003KT 10SM CLR 19/10 A3009 RMK AO2 T01850102
Loading
Personal Weather Stations






























Interactive Weather Map
Tropical Storm Tracking
New forecast layout! Learn more

10-Day Weather Forecast

Advertisements
Track Severe Weather on mobile